createdAt,value
2018-05-24T00:00:28.690Z,6.30
2018-05-24T00:01:28.703Z,6.80
2018-05-24T00:02:28.660Z,6.60
2018-05-24T00:03:28.662Z,6.60
2018-05-24T00:04:28.653Z,7.20
2018-05-24T00:05:28.664Z,7.00
2018-05-24T00:06:28.649Z,7.60
2018-05-24T00:07:28.634Z,7.30
2018-05-24T00:08:28.654Z,6.70
2018-05-24T00:09:28.622Z,6.50
2018-05-24T00:10:28.636Z,6.80
2018-05-24T00:11:28.613Z,6.60
2018-05-24T00:12:28.614Z,6.30
2018-05-24T00:13:28.614Z,6.50
2018-05-24T00:14:28.616Z,7.10
2018-05-24T00:15:28.604Z,6.70
2018-05-24T00:16:28.605Z,6.70
2018-05-24T00:17:28.601Z,6.60
2018-05-24T00:18:28.501Z,6.40
2018-05-24T00:19:28.634Z,6.50
2018-05-24T00:20:28.482Z,6.50
2018-05-24T00:21:28.640Z,7.00
2018-05-24T00:22:28.586Z,7.40
2018-05-24T00:23:28.583Z,7.20
2018-05-24T00:24:28.594Z,7.50
2018-05-24T00:25:28.603Z,8.00
2018-05-24T00:26:28.601Z,8.80
2018-05-24T00:27:28.568Z,8.40
2018-05-24T00:28:28.607Z,8.20
2018-05-24T00:29:28.579Z,7.90
2018-05-24T00:30:28.565Z,8.20
2018-05-24T00:31:28.571Z,8.40
2018-05-24T00:32:28.553Z,8.70
2018-05-24T00:33:28.557Z,8.60
2018-05-24T00:34:28.611Z,8.50
2018-05-24T00:35:28.540Z,8.40
2018-05-24T00:36:28.541Z,8.10
2018-05-24T00:37:28.537Z,8.70
2018-05-24T00:38:28.531Z,7.90
2018-05-24T00:39:28.531Z,7.90
2018-05-24T00:40:28.527Z,7.90
2018-05-24T00:41:28.533Z,8.70
2018-05-24T00:42:28.529Z,8.60
2018-05-24T00:43:28.539Z,8.80
2018-05-24T00:44:28.515Z,8.40
2018-05-24T00:45:28.515Z,8.70
2018-05-24T00:46:28.503Z,8.90
2018-05-24T00:47:28.520Z,8.50
2018-05-24T00:48:28.498Z,7.90
2018-05-24T00:49:28.556Z,8.20
2018-05-24T00:50:28.522Z,8.40
2018-05-24T00:51:28.564Z,8.70
2018-05-24T00:52:28.379Z,8.20
2018-05-24T00:53:28.484Z,8.10
2018-05-24T00:54:28.483Z,8.20
2018-05-24T00:55:28.476Z,8.20
2018-05-24T00:56:28.479Z,7.80
2018-05-24T00:57:28.375Z,8.30
2018-05-24T00:58:28.463Z,8.50
2018-05-24T00:59:28.472Z,9.00
2018-05-24T01:00:28.475Z,7.90
2018-05-24T01:01:28.478Z,8.20
2018-05-24T01:02:28.456Z,8.40
2018-05-24T01:03:28.447Z,8.10
2018-05-24T01:04:28.500Z,7.90
2018-05-24T01:05:28.449Z,8.10
2018-05-24T01:06:28.455Z,9.50
2018-05-24T01:07:28.431Z,8.00
2018-05-24T01:08:28.430Z,7.60
2018-05-24T01:09:28.431Z,7.60
2018-05-24T01:10:28.333Z,8.10
2018-05-24T01:11:28.428Z,8.10
2018-05-24T01:12:28.429Z,8.30
2018-05-24T01:13:28.416Z,8.80
2018-05-24T01:14:28.426Z,8.30
2018-05-24T01:15:28.411Z,8.40
2018-05-24T01:16:28.416Z,8.50
2018-05-24T01:17:28.413Z,8.10
2018-05-24T01:18:28.401Z,7.90
2018-05-24T01:19:28.399Z,8.40
2018-05-24T01:20:28.396Z,8.30
2018-05-24T01:21:28.392Z,8.10
2018-05-24T01:22:28.282Z,8.50
2018-05-24T01:23:28.404Z,8.50
2018-05-24T01:24:28.387Z,8.30
2018-05-24T01:25:28.377Z,8.40
2018-05-24T01:26:28.376Z,8.10
2018-05-24T01:27:28.372Z,8.20
2018-05-24T01:28:28.396Z,8.40
2018-05-24T01:29:28.370Z,8.40
2018-05-24T01:30:28.353Z,8.30
2018-05-24T02:03:47.232Z,6.30
2018-05-24T02:04:47.206Z,10.90
2018-05-24T02:06:40.125Z,13.50
2018-05-24T02:07:40.106Z,14.40
2018-05-24T02:09:33.029Z,13.40
2018-05-24T02:10:33.006Z,13.60
2018-05-24T02:12:25.918Z,13.60
2018-05-24T02:13:25.899Z,14.50
2018-05-24T02:15:19.683Z,17.10
2018-05-24T02:16:18.888Z,16.50
2018-05-24T02:17:18.877Z,17.60
2018-05-24T02:18:18.875Z,19.20
2018-05-24T02:19:18.874Z,20.40
2018-05-24T02:20:18.860Z,20.10
2018-05-24T02:21:18.862Z,19.20
2018-05-24T02:22:18.857Z,18.90
2018-05-24T02:23:18.849Z,17.80
2018-05-24T02:24:18.841Z,18.20
2018-05-24T02:25:18.842Z,18.40
2018-05-24T02:26:18.837Z,19.50
2018-05-24T02:27:18.845Z,18.50
2018-05-24T02:28:18.840Z,18.30
2018-05-24T02:29:18.824Z,17.40
2018-05-24T02:30:18.829Z,17.80
2018-05-24T02:31:18.818Z,16.70
2018-05-24T02:32:18.817Z,17.00
2018-05-24T02:33:18.811Z,16.80
2018-05-24T02:34:18.823Z,18.30
2018-05-24T02:35:18.874Z,16.40
2018-05-24T02:36:18.800Z,17.00
2018-05-24T02:37:18.798Z,16.70
2018-05-24T02:38:18.792Z,16.00
2018-05-24T02:39:18.789Z,16.60
2018-05-24T02:40:18.790Z,16.80
2018-05-24T02:41:18.783Z,17.90
2018-05-24T02:42:18.783Z,17.50
2018-05-24T02:43:18.776Z,17.80
2018-05-24T02:44:18.771Z,17.60
2018-05-24T02:45:18.787Z,17.00
2018-05-24T02:46:18.807Z,17.10
2018-05-24T02:47:18.765Z,18.90
2018-05-24T02:48:18.759Z,19.00
2018-05-24T02:49:18.762Z,19.40
2018-05-24T02:50:18.752Z,19.70
2018-05-24T02:51:18.742Z,19.30
2018-05-24T02:52:18.747Z,19.80
2018-05-24T02:53:18.734Z,19.70
2018-05-24T02:54:18.737Z,19.10
2018-05-24T02:55:18.740Z,18.90
2018-05-24T02:56:18.786Z,18.90
2018-05-24T02:57:18.747Z,18.70
2018-05-24T02:58:18.732Z,18.50
2018-05-24T02:59:18.723Z,18.30
2018-05-24T03:00:18.737Z,18.70
2018-05-24T03:01:18.718Z,18.70
2018-05-24T03:02:18.720Z,17.80
2018-05-24T03:03:18.710Z,18.30
2018-05-24T03:04:18.702Z,16.60
2018-05-24T03:05:18.706Z,16.80
2018-05-24T03:06:18.714Z,17.80
2018-05-24T03:07:18.698Z,16.90
2018-05-24T03:08:18.714Z,17.10
2018-05-24T03:09:18.701Z,16.80
2018-05-24T03:10:18.688Z,17.20
2018-05-24T03:11:18.706Z,17.20
2018-05-24T03:12:18.683Z,17.70
2018-05-24T03:13:18.672Z,17.40
2018-05-24T03:14:18.678Z,16.80
2018-05-24T03:15:18.676Z,16.90
2018-05-24T03:16:18.683Z,17.30
2018-05-24T03:17:18.684Z,16.40
2018-05-24T03:18:18.661Z,15.90
2018-05-24T03:19:18.658Z,15.20
2018-05-24T03:20:18.654Z,15.10
2018-05-24T03:21:18.655Z,15.40
2018-05-24T03:22:18.650Z,15.80
2018-05-24T03:23:18.645Z,17.20
2018-05-24T03:24:18.643Z,15.90
2018-05-24T03:25:18.636Z,16.80
2018-05-24T03:26:18.637Z,14.80
2018-05-24T03:27:18.633Z,15.40
2018-05-24T03:28:18.647Z,15.40
2018-05-24T03:29:18.626Z,15.50
2018-05-24T03:30:18.630Z,14.80
2018-05-24T03:31:18.619Z,15.80
2018-05-24T03:32:18.618Z,14.90
2018-05-24T03:33:18.613Z,15.00
2018-05-24T03:34:18.600Z,14.30
2018-05-24T03:35:18.675Z,15.10
2018-05-24T03:36:18.604Z,13.30
2018-05-24T03:37:18.600Z,15.30
2018-05-24T03:38:18.629Z,14.50
2018-05-24T03:39:18.599Z,15.60
2018-05-24T03:40:18.590Z,14.80
2018-05-24T03:41:18.587Z,15.40
2018-05-24T03:42:18.589Z,15.20
2018-05-24T03:43:18.585Z,16.50
2018-05-24T03:44:18.577Z,16.30
2018-05-24T03:45:18.570Z,15.60
2018-05-24T03:46:18.574Z,16.10
2018-05-24T03:47:18.576Z,17.20
2018-05-24T03:48:18.565Z,16.30
2018-05-24T03:49:18.561Z,16.50
2018-05-24T03:50:18.572Z,15.80
2018-05-24T03:51:18.553Z,17.10
2018-05-24T03:52:18.554Z,16.70
2018-05-24T03:53:18.612Z,16.80
2018-05-24T03:54:18.548Z,17.00
2018-05-24T03:55:18.541Z,16.50
2018-05-24T03:56:18.537Z,17.70
2018-05-24T03:57:18.553Z,17.40
2018-05-24T03:58:18.533Z,16.60
2018-05-24T03:59:18.529Z,18.00
2018-05-24T04:00:18.542Z,17.40
2018-05-24T04:01:18.527Z,18.20
2018-05-24T04:02:18.523Z,17.90
2018-05-24T04:03:18.516Z,18.30
2018-05-24T04:04:18.516Z,19.20
2018-05-24T04:05:18.507Z,18.60
2018-05-24T04:06:18.509Z,18.50
2018-05-24T04:07:18.495Z,17.90
2018-05-24T04:08:18.493Z,20.00
2018-05-24T04:09:18.510Z,17.40
2018-05-24T04:10:18.507Z,18.50
2018-05-24T04:11:18.508Z,17.60
2018-05-24T04:12:18.486Z,17.10
2018-05-24T04:13:18.483Z,17.70
2018-05-24T04:14:18.494Z,19.40
2018-05-24T04:15:18.477Z,18.00
2018-05-24T04:16:18.478Z,18.80
2018-05-24T04:17:18.466Z,18.20
2018-05-24T04:18:18.461Z,17.90
2018-05-24T04:19:18.466Z,19.10
2018-05-24T04:20:18.465Z,17.40
2018-05-24T04:21:18.459Z,17.30
2018-05-24T04:22:18.484Z,18.30
2018-05-24T04:23:18.539Z,18.90
2018-05-24T04:24:18.442Z,19.00
2018-05-24T04:25:18.444Z,18.50
2018-05-24T04:26:18.444Z,19.60
2018-05-24T04:27:18.440Z,17.90
2018-05-24T04:28:18.434Z,21.20
2018-05-24T04:29:18.427Z,17.70
2018-05-24T04:30:18.427Z,18.20
2018-05-24T04:31:18.428Z,17.50
2018-05-24T04:32:18.423Z,18.10
2018-05-24T04:33:18.409Z,18.80
2018-05-24T04:34:18.415Z,18.30
2018-05-24T04:35:18.424Z,18.50
2018-05-24T04:36:18.412Z,18.00
2018-05-24T04:37:18.410Z,17.50
2018-05-24T04:38:18.408Z,17.40
2018-05-24T04:39:18.392Z,18.00
2018-05-24T04:40:18.393Z,17.00
2018-05-24T04:41:18.395Z,17.30
2018-05-24T04:42:18.394Z,17.00
2018-05-24T04:43:18.388Z,16.40
2018-05-24T04:44:18.382Z,15.70
2018-05-24T04:45:18.381Z,15.50
2018-05-24T04:46:18.377Z,15.20
2018-05-24T04:47:18.387Z,15.20
2018-05-24T04:48:18.370Z,14.00
2018-05-24T04:49:18.373Z,15.10
2018-05-24T04:50:18.366Z,13.80
2018-05-24T04:51:18.364Z,13.60
2018-05-24T04:52:18.417Z,14.10
2018-05-24T04:53:18.358Z,13.90
2018-05-24T04:54:18.373Z,13.80
2018-05-24T04:55:18.351Z,13.40
2018-05-24T04:56:18.350Z,12.30
2018-05-24T04:57:18.359Z,11.90
2018-05-24T04:58:18.352Z,12.90
2018-05-24T04:59:18.340Z,12.00
2018-05-24T05:00:18.338Z,12.40
2018-05-24T05:01:18.332Z,13.00
2018-05-24T05:02:18.331Z,12.80
2018-05-24T05:03:18.330Z,11.70
2018-05-24T05:04:18.331Z,12.00
2018-05-24T05:05:18.346Z,12.10
2018-05-24T05:06:18.332Z,12.00
2018-05-24T05:07:18.323Z,12.50
2018-05-24T05:08:18.319Z,12.20
2018-05-24T05:09:18.361Z,12.90
2018-05-24T05:10:18.316Z,12.70
2018-05-24T05:11:18.310Z,12.40
2018-05-24T05:12:18.307Z,11.90
2018-05-24T05:13:18.319Z,12.20
2018-05-24T05:14:18.304Z,11.60
2018-05-24T05:15:18.302Z,12.90
2018-05-24T05:16:18.301Z,12.80
2018-05-24T05:17:18.296Z,12.60
2018-05-24T05:18:18.295Z,12.20
2018-05-24T05:19:18.288Z,12.80
2018-05-24T05:20:18.292Z,12.50
2018-05-24T05:21:18.310Z,12.60
2018-05-24T05:22:18.302Z,12.90
2018-05-24T05:23:18.347Z,13.20
2018-05-24T05:24:18.286Z,14.00
2018-05-24T05:25:18.345Z,12.80
2018-05-24T05:26:18.270Z,13.70
2018-05-24T05:27:18.272Z,12.50
2018-05-24T05:28:18.271Z,13.60
2018-05-24T05:29:18.280Z,13.30
2018-05-24T05:30:18.268Z,13.60
2018-05-24T05:31:18.263Z,13.30
2018-05-24T05:32:18.258Z,13.10
2018-05-24T05:33:18.284Z,12.80
2018-05-24T05:34:18.274Z,13.20
2018-05-24T05:35:18.260Z,13.80
2018-05-24T05:36:18.253Z,13.30
2018-05-24T05:37:18.246Z,13.20
2018-05-24T05:38:18.342Z,13.70
2018-05-24T05:39:18.257Z,13.30
2018-05-24T05:40:18.244Z,13.20
2018-05-24T05:41:18.250Z,14.00
2018-05-24T05:42:18.262Z,13.00
2018-05-24T05:43:18.239Z,13.00
2018-05-24T05:44:18.249Z,14.00
2018-05-24T05:45:18.238Z,12.20
2018-05-24T05:46:18.250Z,13.20
2018-05-24T05:47:18.233Z,12.80
2018-05-24T05:48:18.236Z,11.90
2018-05-24T05:49:18.224Z,12.30
2018-05-24T05:50:18.240Z,11.80
2018-05-24T05:51:18.225Z,12.20
2018-05-24T05:52:18.226Z,12.30
2018-05-24T05:53:18.226Z,11.90
2018-05-24T05:54:18.228Z,12.60
2018-05-24T05:55:18.242Z,11.30
2018-05-24T05:56:18.224Z,11.40
2018-05-24T05:57:18.226Z,11.20
2018-05-24T05:58:18.223Z,10.90
2018-05-24T05:59:18.223Z,11.10
2018-05-24T06:00:18.218Z,11.10
2018-05-24T06:01:18.212Z,11.30
2018-05-24T06:02:18.220Z,10.90
2018-05-24T06:03:18.221Z,11.60
2018-05-24T06:04:18.228Z,11.20
2018-05-24T06:05:18.217Z,11.20
2018-05-24T06:06:18.235Z,10.80
2018-05-24T06:07:18.224Z,11.10
2018-05-24T06:08:18.224Z,10.50
2018-05-24T06:09:18.233Z,10.70
2018-05-24T06:10:18.226Z,10.80
2018-05-24T06:11:18.225Z,10.70
2018-05-24T06:12:18.250Z,10.70
2018-05-24T06:13:18.228Z,10.80
2018-05-24T06:14:18.231Z,10.40
2018-05-24T06:15:18.230Z,10.50
2018-05-24T06:16:18.231Z,10.40
2018-05-24T06:17:18.232Z,9.80
2018-05-24T06:18:18.231Z,10.60
2018-05-24T06:19:18.235Z,9.70
2018-05-24T06:20:18.245Z,10.50
2018-05-24T06:21:18.238Z,10.50
2018-05-24T06:22:18.241Z,10.30
2018-05-24T06:23:18.243Z,10.50
2018-05-24T06:24:18.256Z,9.80
2018-05-24T06:25:18.267Z,9.50
2018-05-24T06:26:18.248Z,10.00
2018-05-24T06:27:18.253Z,9.70
2018-05-24T06:28:18.327Z,10.10
2018-05-24T06:29:18.253Z,10.00
2018-05-24T06:30:18.258Z,9.90
2018-05-24T06:31:18.304Z,9.90
2018-05-24T06:32:18.279Z,9.90
2018-05-24T06:33:18.271Z,10.40
2018-05-24T06:34:18.271Z,10.30
2018-05-24T06:35:18.267Z,10.00
2018-05-24T06:36:18.269Z,10.80
2018-05-24T06:37:18.348Z,11.40
2018-05-24T06:38:18.282Z,10.70
2018-05-24T06:39:18.276Z,10.70
2018-05-24T06:40:18.272Z,10.40
2018-05-24T06:41:18.284Z,10.60
2018-05-24T06:42:18.286Z,10.40
2018-05-24T06:43:18.285Z,11.80
2018-05-24T06:44:18.298Z,10.70
2018-05-24T06:45:18.293Z,11.00
2018-05-24T06:46:18.294Z,10.20
2018-05-24T06:47:18.294Z,11.00
2018-05-24T06:48:18.296Z,10.50
2018-05-24T06:49:18.298Z,11.40
2018-05-24T06:50:18.293Z,10.20
2018-05-24T06:51:18.303Z,10.80
2018-05-24T06:52:18.303Z,10.80
2018-05-24T06:53:18.304Z,10.40
2018-05-24T06:54:18.397Z,10.50
2018-05-24T06:55:18.309Z,10.10
2018-05-24T06:56:18.310Z,10.90
2018-05-24T06:57:18.316Z,11.00
2018-05-24T06:58:18.388Z,11.90
2018-05-24T06:59:18.340Z,11.90
2018-05-24T07:00:18.321Z,11.00
2018-05-24T07:01:18.324Z,11.70
2018-05-24T07:02:18.325Z,11.50
2018-05-24T07:03:18.325Z,11.30
2018-05-24T07:04:18.326Z,10.50
2018-05-24T07:05:18.335Z,11.30
2018-05-24T07:06:18.348Z,10.80
2018-05-24T07:07:18.329Z,11.00
2018-05-24T07:08:18.338Z,11.10
2018-05-24T07:09:18.347Z,10.50
2018-05-24T07:10:18.391Z,10.30
2018-05-24T07:11:18.344Z,10.90
2018-05-24T07:12:18.348Z,11.00
2018-05-24T07:13:18.357Z,10.80
2018-05-24T07:14:18.354Z,10.60
2018-05-24T07:15:18.351Z,10.20
2018-05-24T07:16:18.356Z,10.70
2018-05-24T07:17:18.360Z,10.00
2018-05-24T07:18:18.362Z,9.70
2018-05-24T07:19:18.369Z,9.50
2018-05-24T07:20:18.368Z,10.30
2018-05-24T07:21:18.374Z,10.20
2018-05-24T07:22:18.368Z,10.30
2018-05-24T07:23:18.378Z,10.70
2018-05-24T07:24:18.379Z,9.90
2018-05-24T07:25:18.381Z,10.20
2018-05-24T07:26:18.388Z,10.00
2018-05-24T07:27:18.389Z,9.00
2018-05-24T07:28:18.392Z,9.00
2018-05-24T07:29:18.416Z,9.70
2018-05-24T07:30:18.419Z,9.90
2018-05-24T07:31:18.404Z,9.90
2018-05-24T07:32:18.408Z,9.10
2018-05-24T07:33:18.410Z,10.30
2018-05-24T07:34:18.421Z,10.50
2018-05-24T07:35:18.418Z,9.60
2018-05-24T07:36:18.423Z,8.60
2018-05-24T07:37:18.426Z,9.20
2018-05-24T07:38:18.435Z,9.40
2018-05-24T07:39:18.435Z,9.30
2018-05-24T07:40:18.442Z,9.30
2018-05-24T07:41:18.449Z,9.20
2018-05-24T07:42:18.455Z,9.60
2018-05-24T07:43:18.448Z,9.50
2018-05-24T07:44:18.458Z,9.80
2018-05-24T07:45:18.464Z,9.80
2018-05-24T07:46:18.465Z,10.40
2018-05-24T07:47:18.472Z,9.50
2018-05-24T07:48:18.477Z,10.10
2018-05-24T07:49:18.468Z,10.50
2018-05-24T07:50:18.472Z,9.30
2018-05-24T07:51:18.479Z,8.50
2018-05-24T07:52:18.513Z,8.80
2018-05-24T07:53:18.499Z,8.50
2018-05-24T07:54:18.492Z,8.80
2018-05-24T07:55:18.501Z,8.80
2018-05-24T07:56:18.513Z,8.70
2018-05-24T07:57:18.509Z,8.50
2018-05-24T07:58:18.523Z,8.30
2018-05-24T07:59:18.527Z,8.30
2018-05-24T08:00:18.527Z,8.00
2018-05-24T08:01:18.539Z,8.60
2018-05-24T08:02:18.543Z,7.30
2018-05-24T08:03:18.550Z,8.00
2018-05-24T08:04:18.563Z,8.60
2018-05-24T08:05:18.569Z,7.90
2018-05-24T08:06:18.572Z,8.00
2018-05-24T08:07:18.577Z,7.80
2018-05-24T08:08:18.589Z,7.50
2018-05-24T08:09:18.603Z,6.80
2018-05-24T08:10:18.608Z,6.40
2018-05-24T08:11:18.616Z,6.50
2018-05-24T08:12:18.625Z,6.50
2018-05-24T08:13:18.639Z,7.00
2018-05-24T08:14:18.647Z,6.70
2018-05-24T08:15:18.658Z,6.10
2018-05-24T08:16:18.669Z,5.80
2018-05-24T08:17:18.681Z,5.40
2018-05-24T08:18:18.697Z,5.30
2018-05-24T08:19:18.708Z,5.00
2018-05-24T08:20:18.716Z,5.30
2018-05-24T08:21:18.739Z,5.60
2018-05-24T08:22:18.734Z,8.40
2018-05-24T08:23:18.760Z,6.10
2018-05-24T08:24:18.790Z,6.40
2018-05-24T08:25:39.791Z,6.10
2018-05-24T08:26:18.773Z,6.60
2018-05-24T08:27:18.793Z,6.70
2018-05-24T08:28:18.806Z,6.30
2018-05-24T08:29:18.812Z,6.00
2018-05-24T08:30:18.827Z,5.50
2018-05-24T08:31:18.843Z,5.50
2018-05-24T08:32:18.854Z,5.80
2018-05-24T08:33:18.859Z,5.50
2018-05-24T08:34:18.873Z,5.30
2018-05-24T08:35:18.888Z,5.90
2018-05-24T08:36:18.900Z,5.90
2018-05-24T08:37:18.911Z,5.90
2018-05-24T08:38:18.920Z,5.50
2018-05-24T08:39:18.930Z,5.40
2018-05-24T08:40:18.941Z,5.80
2018-05-24T08:41:18.958Z,6.10
2018-05-24T08:42:18.960Z,5.60
2018-05-24T08:43:18.969Z,5.70
2018-05-24T08:44:18.981Z,5.90
2018-05-24T08:45:19.000Z,6.10
2018-05-24T08:46:19.003Z,6.20
2018-05-24T08:47:19.050Z,6.10
2018-05-24T08:48:19.006Z,6.30
2018-05-24T08:49:19.020Z,6.20
2018-05-24T08:50:19.031Z,6.70
2018-05-24T08:51:19.035Z,8.00
2018-05-24T08:52:19.052Z,7.50
2018-05-24T08:53:19.081Z,7.00
2018-05-24T08:54:19.077Z,7.10
2018-05-24T08:55:19.072Z,6.80
2018-05-24T08:56:19.085Z,6.80
2018-05-24T08:57:19.092Z,6.40
2018-05-24T08:58:19.106Z,6.70
2018-05-24T08:59:19.114Z,6.70
2018-05-24T09:00:19.126Z,6.30
2018-05-24T09:01:19.271Z,5.90
2018-05-24T09:02:19.156Z,5.60
2018-05-24T09:03:19.171Z,5.70
2018-05-24T09:04:19.186Z,5.50
2018-05-24T09:05:19.218Z,4.90
2018-05-24T09:06:19.256Z,4.20
2018-05-24T09:07:19.240Z,4.10
2018-05-24T09:08:19.253Z,4.40
2018-05-24T09:09:19.941Z,4.40
2018-05-24T09:10:19.299Z,4.70
2018-05-24T09:11:19.303Z,5.30
2018-05-24T09:12:19.324Z,5.00
2018-05-24T09:13:19.362Z,6.20
2018-05-24T09:14:19.362Z,5.40
2018-05-24T09:15:19.373Z,5.00
2018-05-24T09:16:19.399Z,4.80
2018-05-24T09:17:19.418Z,4.80
2018-05-24T09:18:19.437Z,4.70
2018-05-24T09:19:19.460Z,4.40
2018-05-24T09:20:19.527Z,4.80
2018-05-24T09:21:19.514Z,4.80
2018-05-24T09:22:19.521Z,5.00
2018-05-24T09:23:19.552Z,5.20
2018-05-24T09:24:19.557Z,5.20
2018-05-24T09:25:19.579Z,5.10
2018-05-24T09:26:19.597Z,5.00
2018-05-24T09:27:19.618Z,4.90
2018-05-24T09:28:19.647Z,5.20
2018-05-24T09:29:19.756Z,5.20
2018-05-24T09:30:19.677Z,4.70
2018-05-24T09:31:19.694Z,4.70
2018-05-24T09:32:19.736Z,4.30
2018-05-24T09:33:19.733Z,4.50
2018-05-24T09:34:19.762Z,4.40
2018-05-24T09:35:19.778Z,4.70
2018-05-24T09:36:19.887Z,4.70
2018-05-24T09:37:19.818Z,4.80
2018-05-24T09:38:19.831Z,5.00
2018-05-24T09:39:19.845Z,5.40
2018-05-24T09:40:19.861Z,5.60
2018-05-24T09:41:19.890Z,5.50
2018-05-24T09:42:20.036Z,5.40
2018-05-24T09:43:19.916Z,5.10
2018-05-24T09:44:19.937Z,5.00
2018-05-24T09:45:19.957Z,4.60
2018-05-24T09:46:19.987Z,4.90
2018-05-24T09:47:19.993Z,4.50
2018-05-24T09:48:20.001Z,5.20
2018-05-24T09:49:20.015Z,5.00
2018-05-24T09:50:20.034Z,4.60
2018-05-24T09:51:20.045Z,4.90
2018-05-24T09:52:20.072Z,4.60
2018-05-24T09:53:20.088Z,4.80
2018-05-24T09:54:20.105Z,4.70
2018-05-24T09:55:20.169Z,4.30
2018-05-24T09:56:20.131Z,4.40
2018-05-24T09:57:20.146Z,4.20
2018-05-24T09:58:20.171Z,4.50
2018-05-24T09:59:20.182Z,4.20
2018-05-24T10:00:20.200Z,4.40
2018-05-24T10:01:20.216Z,4.70
2018-05-24T10:02:20.223Z,4.10
2018-05-24T10:03:20.264Z,4.50
2018-05-24T10:04:20.267Z,4.10
2018-05-24T10:05:20.287Z,4.60
2018-05-24T10:06:20.303Z,4.50
2018-05-24T10:07:20.350Z,5.00
2018-05-24T10:08:20.338Z,4.50
2018-05-24T10:09:20.355Z,4.10
2018-05-24T10:10:20.367Z,4.40
2018-05-24T10:11:20.380Z,4.00
2018-05-24T10:12:20.400Z,4.50
2018-05-24T10:13:20.419Z,4.60
2018-05-24T10:14:20.433Z,5.30
2018-05-24T10:15:20.440Z,4.60
2018-05-24T10:16:20.566Z,4.90
2018-05-24T10:17:20.476Z,4.00
2018-05-24T10:18:20.506Z,4.60
2018-05-24T10:19:20.525Z,4.20
2018-05-24T10:20:20.518Z,4.10
2018-05-24T10:21:20.544Z,3.70
2018-05-24T10:22:20.548Z,4.30
2018-05-24T10:24:20.588Z,4.30
2018-05-24T10:25:20.606Z,4.00
2018-05-24T10:26:20.634Z,3.70
2018-05-24T10:27:20.636Z,3.50
2018-05-24T10:28:20.652Z,3.60
2018-05-24T10:29:20.745Z,3.70
2018-05-24T10:30:20.698Z,3.40
2018-05-24T10:31:20.700Z,3.30
2018-05-24T10:32:20.743Z,3.50
2018-05-24T10:33:20.743Z,3.70
2018-05-24T10:34:20.746Z,3.40
2018-05-24T10:35:20.772Z,3.50
2018-05-24T10:36:20.789Z,3.60
2018-05-24T10:37:20.809Z,3.50
2018-05-24T10:38:20.825Z,3.40
2018-05-24T10:39:20.860Z,3.50
2018-05-24T10:40:20.874Z,4.20
2018-05-24T10:41:20.880Z,3.90
2018-05-24T10:42:20.901Z,3.50
2018-05-24T10:43:20.912Z,3.50
2018-05-24T10:44:20.934Z,3.50
2018-05-24T10:45:20.957Z,3.30
2018-05-24T10:46:20.973Z,3.40
2018-05-24T10:47:21.004Z,3.30
2018-05-24T10:48:21.007Z,2.60
2018-05-24T10:49:21.036Z,2.90
2018-05-24T10:50:21.044Z,3.10
2018-05-24T10:51:21.098Z,3.00
2018-05-24T10:52:21.077Z,2.70
2018-05-24T10:53:21.082Z,2.70
2018-05-24T10:54:21.105Z,2.90
2018-05-24T10:55:21.119Z,3.30
2018-05-24T10:56:21.138Z,3.10
2018-05-24T10:57:21.155Z,2.80
2018-05-24T10:58:21.173Z,2.60
2018-05-24T10:59:21.188Z,2.50
2018-05-24T11:00:21.211Z,2.40
2018-05-24T11:01:21.207Z,2.80
2018-05-24T11:02:21.239Z,2.70
2018-05-24T11:03:21.280Z,3.30
2018-05-24T11:04:21.259Z,3.00
2018-05-24T11:05:21.289Z,3.20
2018-05-24T11:06:21.343Z,3.00
2018-05-24T11:07:21.290Z,3.10
2018-05-24T11:08:21.309Z,2.70
2018-05-24T11:09:21.328Z,2.90
2018-05-24T11:10:21.336Z,2.90
2018-05-24T11:11:21.365Z,2.70
2018-05-24T11:12:21.362Z,2.30
2018-05-24T11:13:21.371Z,2.30
2018-05-24T11:14:21.383Z,2.30
2018-05-24T11:15:21.397Z,2.50
2018-05-24T11:16:21.413Z,2.20
2018-05-24T11:17:21.452Z,2.40
2018-05-24T11:18:21.440Z,2.40
2018-05-24T11:19:21.449Z,2.60
2018-05-24T11:20:21.479Z,2.90
2018-05-24T11:21:21.483Z,2.70
2018-05-24T11:22:21.493Z,3.00
2018-05-24T11:23:21.504Z,3.20
2018-05-24T11:24:21.549Z,3.10
2018-05-24T11:25:21.648Z,2.90
2018-05-24T11:26:21.564Z,2.70
2018-05-24T11:27:21.571Z,2.90
2018-05-24T11:28:21.588Z,3.00
2018-05-24T11:29:21.608Z,3.00
2018-05-24T11:30:21.620Z,2.90
2018-05-24T11:31:21.634Z,3.30
2018-05-24T11:32:21.660Z,3.20
2018-05-24T11:33:21.664Z,3.40
2018-05-24T11:34:21.681Z,3.30
2018-05-24T11:35:21.717Z,3.10
2018-05-24T11:36:21.702Z,3.20
2018-05-24T11:37:21.823Z,3.10
2018-05-24T11:38:21.745Z,3.60
2018-05-24T11:39:21.761Z,2.70
2018-05-24T11:40:21.784Z,2.70
2018-05-24T11:41:21.793Z,2.80
2018-05-24T11:42:21.811Z,3.20
2018-05-24T11:43:21.937Z,3.00
2018-05-24T11:44:21.852Z,2.80
2018-05-24T11:45:21.885Z,2.60
2018-05-24T11:46:21.886Z,2.80
2018-05-24T11:47:21.892Z,2.20
2018-05-24T11:48:21.912Z,2.70
2018-05-24T11:49:21.939Z,3.90
2018-05-24T11:50:21.944Z,3.00
2018-05-24T11:51:21.972Z,3.40
2018-05-24T11:52:21.990Z,3.50
2018-05-24T11:53:21.999Z,3.30
2018-05-24T11:54:22.020Z,3.30
2018-05-24T11:55:22.033Z,2.60
2018-05-24T11:56:22.046Z,2.80
2018-05-24T11:57:22.077Z,3.00
2018-05-24T11:58:22.078Z,3.00
2018-05-24T11:59:22.147Z,2.80
2018-05-24T12:00:22.122Z,2.70
2018-05-24T12:01:22.138Z,3.00
2018-05-24T12:02:22.155Z,3.00
2018-05-24T12:03:22.175Z,2.40
2018-05-24T12:04:22.205Z,3.30
2018-05-24T12:05:22.208Z,3.00
2018-05-24T12:06:22.225Z,2.90
2018-05-24T12:07:22.245Z,2.60
2018-05-24T12:08:22.261Z,2.60
2018-05-24T12:09:22.274Z,3.10
2018-05-24T12:10:22.296Z,3.50
2018-05-24T12:11:22.307Z,3.70
2018-05-24T12:12:22.332Z,3.40
2018-05-24T12:13:22.377Z,3.30
2018-05-24T12:14:22.360Z,3.70
2018-05-24T12:15:22.444Z,3.90
2018-05-24T12:16:22.400Z,3.50
2018-05-24T12:17:22.410Z,3.30
2018-05-24T12:18:22.422Z,3.10
2018-05-24T12:19:22.451Z,3.00
2018-05-24T12:20:22.464Z,3.00
2018-05-24T12:21:22.477Z,2.70
2018-05-24T12:22:22.491Z,2.90
2018-05-24T12:23:22.530Z,2.70
2018-05-24T12:24:22.526Z,2.50
2018-05-24T12:25:22.569Z,2.40
2018-05-24T12:26:22.562Z,2.40
2018-05-24T12:27:22.567Z,2.50
2018-05-24T12:28:22.597Z,2.40
2018-05-24T12:29:22.618Z,2.60
2018-05-24T12:30:22.632Z,2.50
2018-05-24T12:31:22.646Z,2.30
2018-05-24T12:32:22.670Z,2.40
2018-05-24T12:33:22.703Z,2.10
2018-05-24T12:34:22.713Z,1.90
2018-05-24T12:35:22.736Z,1.90
2018-05-24T12:36:22.723Z,1.90
2018-05-24T12:37:22.739Z,2.10
2018-05-24T12:38:22.748Z,2.10
2018-05-24T12:39:22.769Z,2.20
2018-05-24T12:40:22.796Z,2.10
2018-05-24T12:41:22.800Z,2.30
2018-05-24T12:42:22.805Z,2.30
2018-05-24T12:43:22.815Z,2.20
2018-05-24T12:44:22.824Z,2.20
2018-05-24T12:45:22.834Z,2.10
2018-05-24T12:46:22.845Z,1.90
2018-05-24T12:47:22.853Z,2.20
2018-05-24T12:48:22.859Z,2.30
2018-05-24T12:49:22.869Z,1.70
2018-05-24T12:50:22.873Z,1.70
2018-05-24T12:51:22.881Z,1.70
2018-05-24T12:52:22.911Z,2.20
2018-05-24T12:53:22.895Z,2.50
2018-05-24T12:54:22.915Z,2.70
2018-05-24T12:55:22.910Z,2.70
2018-05-24T12:56:22.916Z,2.70
2018-05-24T12:57:22.925Z,2.70
2018-05-24T12:58:22.924Z,2.70
2018-05-24T12:59:22.927Z,2.60
2018-05-24T13:00:22.939Z,2.60
2018-05-24T13:01:22.945Z,2.70
2018-05-24T13:02:22.949Z,2.70
2018-05-24T13:03:22.951Z,2.60
2018-05-24T13:04:22.953Z,3.40
2018-05-24T13:05:22.962Z,2.40
2018-05-24T13:06:22.965Z,2.50
2018-05-24T13:07:22.968Z,2.20
2018-05-24T13:08:22.976Z,2.20
2018-05-24T13:09:22.986Z,2.00
2018-05-24T13:10:22.982Z,2.10
2018-05-24T13:11:22.988Z,1.80
2018-05-24T13:12:22.989Z,2.10
2018-05-24T13:13:22.989Z,1.90
2018-05-24T13:14:22.996Z,1.90
2018-05-24T13:15:22.999Z,2.10
2018-05-24T13:16:23.005Z,1.80
2018-05-24T13:17:23.014Z,1.90
2018-05-24T13:18:23.008Z,2.20
2018-05-24T13:19:23.010Z,1.90
2018-05-24T13:20:23.012Z,1.70
2018-05-24T13:21:23.011Z,1.80
2018-05-24T13:22:23.037Z,1.80
2018-05-24T13:23:23.027Z,1.40
2018-05-24T13:24:23.057Z,2.50
2018-05-24T13:25:23.026Z,1.80
2018-05-24T13:26:23.031Z,2.00
2018-05-24T13:27:23.043Z,1.90
2018-05-24T13:28:23.035Z,2.00
2018-05-24T13:29:23.041Z,1.90
2018-05-24T13:30:23.040Z,1.70
2018-05-24T13:31:23.045Z,1.60
2018-05-24T13:32:23.048Z,1.40
2018-05-24T13:33:23.069Z,1.60
2018-05-24T13:34:23.058Z,1.50
2018-05-24T13:35:23.056Z,1.60
2018-05-24T13:36:23.058Z,1.60
2018-05-24T13:37:23.059Z,1.50
2018-05-24T13:38:23.060Z,1.60
2018-05-24T13:39:23.067Z,1.60
2018-05-24T13:40:23.080Z,1.60
2018-05-24T13:41:23.072Z,1.40
2018-05-24T13:42:23.079Z,1.00
2018-05-24T13:43:23.091Z,1.10
2018-05-24T13:44:23.064Z,1.50
2018-05-24T13:45:23.085Z,1.30